sensor_id;sensor_type;location;lat;lon;timestamp;temperature;humidity
17659;DHT22;8948;51.534;8.262;2022-08-21T00:02:03;18.80;63.20
17659;DHT22;8948;51.534;8.262;2022-08-21T00:07:04;18.80;63.30
17659;DHT22;8948;51.534;8.262;2022-08-21T00:12:05;18.80;63.10
17659;DHT22;8948;51.534;8.262;2022-08-21T00:17:06;18.80;63.30
17659;DHT22;8948;51.534;8.262;2022-08-21T00:22:07;18.80;63.20
17659;DHT22;8948;51.534;8.262;2022-08-21T00:27:07;18.70;63.20
17659;DHT22;8948;51.534;8.262;2022-08-21T00:32:08;18.70;63.10
17659;DHT22;8948;51.534;8.262;2022-08-21T00:37:08;18.60;63.30
17659;DHT22;8948;51.534;8.262;2022-08-21T00:42:10;18.60;63.40
17659;DHT22;8948;51.534;8.262;2022-08-21T00:47:15;18.50;63.50
17659;DHT22;8948;51.534;8.262;2022-08-21T00:52:21;18.40;63.40
17659;DHT22;8948;51.534;8.262;2022-08-21T00:57:27;18.40;63.40
17659;DHT22;8948;51.534;8.262;2022-08-21T01:02:28;18.30;63.60
17659;DHT22;8948;51.534;8.262;2022-08-21T01:07:28;18.30;63.80
17659;DHT22;8948;51.534;8.262;2022-08-21T01:12:29;18.20;64.00
17659;DHT22;8948;51.534;8.262;2022-08-21T01:17:30;18.10;64.00
17659;DHT22;8948;51.534;8.262;2022-08-21T01:22:32;18.10;64.20
17659;DHT22;8948;51.534;8.262;2022-08-21T01:27:33;18.00;64.20
17659;DHT22;8948;51.534;8.262;2022-08-21T01:32:34;17.90;64.00
17659;DHT22;8948;51.534;8.262;2022-08-21T01:37:34;17.90;64.10
17659;DHT22;8948;51.534;8.262;2022-08-21T01:42:37;17.80;64.20
17659;DHT22;8948;51.534;8.262;2022-08-21T01:47:38;17.80;64.00
17659;DHT22;8948;51.534;8.262;2022-08-21T01:52:39;17.70;64.40
17659;DHT22;8948;51.534;8.262;2022-08-21T01:57:40;17.60;64.30
17659;DHT22;8948;51.534;8.262;2022-08-21T02:02:41;17.60;64.60
17659;DHT22;8948;51.534;8.262;2022-08-21T02:07:51;17.60;64.70
17659;DHT22;8948;51.534;8.262;2022-08-21T02:12:52;17.50;65.00
17659;DHT22;8948;51.534;8.262;2022-08-21T02:17:55;17.50;64.90
17659;DHT22;8948;51.534;8.262;2022-08-21T02:22:56;17.50;65.40
17659;DHT22;8948;51.534;8.262;2022-08-21T02:27:58;17.60;65.70
17659;DHT22;8948;51.534;8.262;2022-08-21T02:33:00;17.80;65.60
17659;DHT22;8948;51.534;8.262;2022-08-21T02:38:04;17.80;65.30
17659;DHT22;8948;51.534;8.262;2022-08-21T02:43:06;17.80;65.20
17659;DHT22;8948;51.534;8.262;2022-08-21T02:48:10;17.80;65.30
17659;DHT22;8948;51.534;8.262;2022-08-21T02:53:12;17.80;65.60
17659;DHT22;8948;51.534;8.262;2022-08-21T02:58:18;17.80;65.60
17659;DHT22;8948;51.534;8.262;2022-08-21T03:03:19;17.80;65.80
17659;DHT22;8948;51.534;8.262;2022-08-21T03:08:22;17.90;65.90
17659;DHT22;8948;51.534;8.262;2022-08-21T03:13:23;17.90;66.20
17659;DHT22;8948;51.534;8.262;2022-08-21T03:18:24;17.90;66.30
17659;DHT22;8948;51.534;8.262;2022-08-21T03:23:24;18.00;66.50
17659;DHT22;8948;51.534;8.262;2022-08-21T03:28:25;18.00;66.60
17659;DHT22;8948;51.534;8.262;2022-08-21T03:33:25;18.00;66.80
17659;DHT22;8948;51.534;8.262;2022-08-21T03:38:28;18.10;66.60
17659;DHT22;8948;51.534;8.262;2022-08-21T03:43:29;18.10;66.80
17659;DHT22;8948;51.534;8.262;2022-08-21T03:48:33;18.10;66.60
17659;DHT22;8948;51.534;8.262;2022-08-21T03:53:34;18.10;66.60
17659;DHT22;8948;51.534;8.262;2022-08-21T03:58:35;18.00;67.10
17659;DHT22;8948;51.534;8.262;2022-08-21T04:03:37;17.90;67.50
17659;DHT22;8948;51.534;8.262;2022-08-21T04:08:37;18.00;67.40
17659;DHT22;8948;51.534;8.262;2022-08-21T04:13:38;17.90;67.10
17659;DHT22;8948;51.534;8.262;2022-08-21T04:18:41;17.90;67.10
17659;DHT22;8948;51.534;8.262;2022-08-21T04:23:42;17.90;67.00
17659;DHT22;8948;51.534;8.262;2022-08-21T04:28:43;18.10;69.50
17659;DHT22;8948;51.534;8.262;2022-08-21T04:33:44;18.40;68.60
17659;DHT22;8948;51.534;8.262;2022-08-21T04:38:45;18.70;68.00
17659;DHT22;8948;51.534;8.262;2022-08-21T04:43:45;18.80;66.70
17659;DHT22;8948;51.534;8.262;2022-08-21T04:48:46;18.90;66.60
17659;DHT22;8948;51.534;8.262;2022-08-21T04:53:52;18.90;66.60
17659;DHT22;8948;51.534;8.262;2022-08-21T04:58:56;18.90;65.40
17659;DHT22;8948;51.534;8.262;2022-08-21T05:03:59;18.90;66.50
17659;DHT22;8948;51.534;8.262;2022-08-21T05:09:00;18.90;66.10
17659;DHT22;8948;51.534;8.262;2022-08-21T05:14:01;18.90;65.60
17659;DHT22;8948;51.534;8.262;2022-08-21T05:19:02;18.90;66.40
17659;DHT22;8948;51.534;8.262;2022-08-21T05:24:03;18.80;65.10
17659;DHT22;8948;51.534;8.262;2022-08-21T05:29:04;18.90;66.00
17659;DHT22;8948;51.534;8.262;2022-08-21T05:34:05;18.80;64.40
17659;DHT22;8948;51.534;8.262;2022-08-21T05:39:06;18.60;64.80
17659;DHT22;8948;51.534;8.262;2022-08-21T05:44:07;18.50;64.90
17659;DHT22;8948;51.534;8.262;2022-08-21T05:49:08;18.40;64.90
17659;DHT22;8948;51.534;8.262;2022-08-21T05:54:08;18.40;65.30
17659;DHT22;8948;51.534;8.262;2022-08-21T05:59:09;18.40;65.40
17659;DHT22;8948;51.534;8.262;2022-08-21T06:04:11;18.40;65.50
17659;DHT22;8948;51.534;8.262;2022-08-21T06:09:12;18.50;65.60
17659;DHT22;8948;51.534;8.262;2022-08-21T06:14:16;18.60;65.70
17659;DHT22;8948;51.534;8.262;2022-08-21T06:19:17;18.80;65.80
17659;DHT22;8948;51.534;8.262;2022-08-21T06:24:17;18.90;65.30
17659;DHT22;8948;51.534;8.262;2022-08-21T06:29:18;19.00;64.80
17659;DHT22;8948;51.534;8.262;2022-08-21T06:34:20;19.10;64.90
17659;DHT22;8948;51.534;8.262;2022-08-21T06:39:20;19.30;64.50
17659;DHT22;8948;51.534;8.262;2022-08-21T06:44:21;19.40;64.20
17659;DHT22;8948;51.534;8.262;2022-08-21T06:49:21;19.50;64.20
17659;DHT22;8948;51.534;8.262;2022-08-21T06:54:22;19.80;64.20
17659;DHT22;8948;51.534;8.262;2022-08-21T06:59:23;19.90;63.30
17659;DHT22;8948;51.534;8.262;2022-08-21T07:04:23;20.20;62.60
17659;DHT22;8948;51.534;8.262;2022-08-21T07:09:24;20.40;61.80
17659;DHT22;8948;51.534;8.262;2022-08-21T07:14:25;20.50;60.70
17659;DHT22;8948;51.534;8.262;2022-08-21T07:19:25;20.70;60.30
17659;DHT22;8948;51.534;8.262;2022-08-21T07:24:26;20.90;58.50
17659;DHT22;8948;51.534;8.262;2022-08-21T07:29:27;21.10;58.10
17659;DHT22;8948;51.534;8.262;2022-08-21T07:34:27;21.20;57.30
17659;DHT22;8948;51.534;8.262;2022-08-21T07:39:28;21.40;57.70
17659;DHT22;8948;51.534;8.262;2022-08-21T07:44:28;21.60;57.70
17659;DHT22;8948;51.534;8.262;2022-08-21T07:49:29;21.90;55.40
17659;DHT22;8948;51.534;8.262;2022-08-21T07:54:29;21.90;53.30
17659;DHT22;8948;51.534;8.262;2022-08-21T07:59:30;22.30;53.90
17659;DHT22;8948;51.534;8.262;2022-08-21T08:04:31;22.40;52.30
17659;DHT22;8948;51.534;8.262;2022-08-21T08:09:31;22.50;50.90
17659;DHT22;8948;51.534;8.262;2022-08-21T08:14:32;22.70;49.70
17659;DHT22;8948;51.534;8.262;2022-08-21T08:19:33;23.00;50.30
17659;DHT22;8948;51.534;8.262;2022-08-21T08:24:38;23.10;47.50
17659;DHT22;8948;51.534;8.262;2022-08-21T08:29:39;23.20;47.20
17659;DHT22;8948;51.534;8.262;2022-08-21T08:34:39;23.40;48.50
17659;DHT22;8948;51.534;8.262;2022-08-21T08:39:40;23.80;48.30
17659;DHT22;8948;51.534;8.262;2022-08-21T08:44:42;23.50;47.90
17659;DHT22;8948;51.534;8.262;2022-08-21T08:49:53;24.00;45.30
17659;DHT22;8948;51.534;8.262;2022-08-21T08:55:06;23.20;46.40
17659;DHT22;8948;51.534;8.262;2022-08-21T09:00:13;23.20;46.40
17659;DHT22;8948;51.534;8.262;2022-08-21T09:05:25;24.00;44.50
17659;DHT22;8948;51.534;8.262;2022-08-21T09:21:58;24.50;43.30
17659;DHT22;8948;51.534;8.262;2022-08-21T09:27:16;24.40;44.20
17659;DHT22;8948;51.534;8.262;2022-08-21T09:32:24;25.10;42.70
17659;DHT22;8948;51.534;8.262;2022-08-21T09:37:29;25.60;42.80
17659;DHT22;8948;51.534;8.262;2022-08-21T09:42:32;25.90;42.30
17659;DHT22;8948;51.534;8.262;2022-08-21T09:47:32;26.50;41.90
17659;DHT22;8948;51.534;8.262;2022-08-21T09:52:33;26.00;41.70
17659;DHT22;8948;51.534;8.262;2022-08-21T09:57:34;25.50;42.70
17659;DHT22;8948;51.534;8.262;2022-08-21T10:02:42;26.10;41.20
17659;DHT22;8948;51.534;8.262;2022-08-21T10:07:43;26.80;41.20
17659;DHT22;8948;51.534;8.262;2022-08-21T10:13:01;27.10;40.60
17659;DHT22;8948;51.534;8.262;2022-08-21T10:28:48;27.70;38.50
17659;DHT22;8948;51.534;8.262;2022-08-21T10:34:27;27.80;38.40
17659;DHT22;8948;51.534;8.262;2022-08-21T10:39:35;27.60;37.90
17659;DHT22;8948;51.534;8.262;2022-08-21T10:55:15;28.10;35.70
17659;DHT22;8948;51.534;8.262;2022-08-21T11:00:21;28.20;36.40
17659;DHT22;8948;51.534;8.262;2022-08-21T11:05:35;28.40;35.50
17659;DHT22;8948;51.534;8.262;2022-08-21T11:10:48;28.80;35.00
17659;DHT22;8948;51.534;8.262;2022-08-21T11:15:56;28.50;36.10
17659;DHT22;8948;51.534;8.262;2022-08-21T11:21:19;28.60;37.20
17659;DHT22;8948;51.534;8.262;2022-08-21T11:26:41;28.10;36.10
17659;DHT22;8948;51.534;8.262;2022-08-21T11:42:37;29.50;35.30
17659;DHT22;8948;51.534;8.262;2022-08-21T11:53:33;29.30;35.20
17659;DHT22;8948;51.534;8.262;2022-08-21T11:58:44;29.70;35.20
17659;DHT22;8948;51.534;8.262;2022-08-21T12:03:55;29.40;37.10
17659;DHT22;8948;51.534;8.262;2022-08-21T12:09:00;30.00;34.80
17659;DHT22;8948;51.534;8.262;2022-08-21T12:19:08;29.50;35.00
17659;DHT22;8948;51.534;8.262;2022-08-21T12:29:30;30.60;33.00
17659;DHT22;8948;51.534;8.262;2022-08-21T12:34:38;30.90;32.10
17659;DHT22;8948;51.534;8.262;2022-08-21T12:39:44;30.90;31.10
17659;DHT22;8948;51.534;8.262;2022-08-21T12:45:02;30.60;30.80
17659;DHT22;8948;51.534;8.262;2022-08-21T12:50:37;30.80;31.00
17659;DHT22;8948;51.534;8.262;2022-08-21T12:55:41;31.10;30.70
17659;DHT22;8948;51.534;8.262;2022-08-21T13:00:49;31.40;32.00
17659;DHT22;8948;51.534;8.262;2022-08-21T13:05:51;31.50;31.00
17659;DHT22;8948;51.534;8.262;2022-08-21T13:11:02;31.20;31.40
17659;DHT22;8948;51.534;8.262;2022-08-21T13:16:06;31.40;31.80
17659;DHT22;8948;51.534;8.262;2022-08-21T13:21:13;31.50;30.80
17659;DHT22;8948;51.534;8.262;2022-08-21T13:26:19;31.80;31.40
17659;DHT22;8948;51.534;8.262;2022-08-21T13:31:26;32.10;31.10
17659;DHT22;8948;51.534;8.262;2022-08-21T13:36:32;32.00;29.70
17659;DHT22;8948;51.534;8.262;2022-08-21T13:41:36;31.70;31.70
17659;DHT22;8948;51.534;8.262;2022-08-21T13:46:38;32.20;31.40
17659;DHT22;8948;51.534;8.262;2022-08-21T13:51:39;31.70;31.30
17659;DHT22;8948;51.534;8.262;2022-08-21T13:56:45;32.20;31.20
17659;DHT22;8948;51.534;8.262;2022-08-21T14:01:54;32.40;31.60
17659;DHT22;8948;51.534;8.262;2022-08-21T14:06:59;32.20;30.60
17659;DHT22;8948;51.534;8.262;2022-08-21T14:12:04;31.50;31.70
17659;DHT22;8948;51.534;8.262;2022-08-21T14:17:25;31.70;31.30
17659;DHT22;8948;51.534;8.262;2022-08-21T14:22:47;31.60;31.60
17659;DHT22;8948;51.534;8.262;2022-08-21T14:27:54;31.30;31.00
17659;DHT22;8948;51.534;8.262;2022-08-21T14:32:56;31.80;31.90
17659;DHT22;8948;51.534;8.262;2022-08-21T14:37:57;32.50;31.00
17659;DHT22;8948;51.534;8.262;2022-08-21T14:42:58;32.60;31.00
17659;DHT22;8948;51.534;8.262;2022-08-21T14:47:59;32.60;30.10
17659;DHT22;8948;51.534;8.262;2022-08-21T14:52:59;31.50;30.80
17659;DHT22;8948;51.534;8.262;2022-08-21T14:58:00;31.60;31.40
17659;DHT22;8948;51.534;8.262;2022-08-21T15:03:01;31.80;31.00
17659;DHT22;8948;51.534;8.262;2022-08-21T15:08:02;32.20;30.60
17659;DHT22;8948;51.534;8.262;2022-08-21T15:13:03;31.70;30.50
17659;DHT22;8948;51.534;8.262;2022-08-21T15:18:04;31.60;30.80
17659;DHT22;8948;51.534;8.262;2022-08-21T15:23:07;31.80;31.40
17659;DHT22;8948;51.534;8.262;2022-08-21T15:28:09;31.80;30.60
17659;DHT22;8948;51.534;8.262;2022-08-21T15:33:10;32.10;31.00
17659;DHT22;8948;51.534;8.262;2022-08-21T15:38:12;32.20;30.60
17659;DHT22;8948;51.534;8.262;2022-08-21T15:43:30;31.80;30.80
17659;DHT22;8948;51.534;8.262;2022-08-21T15:48:32;31.20;30.60
17659;DHT22;8948;51.534;8.262;2022-08-21T15:53:33;30.50;31.90
17659;DHT22;8948;51.534;8.262;2022-08-21T15:58:37;29.70;32.50
17659;DHT22;8948;51.534;8.262;2022-08-21T16:03:38;29.10;33.20
17659;DHT22;8948;51.534;8.262;2022-08-21T16:08:39;28.90;33.50
17659;DHT22;8948;51.534;8.262;2022-08-21T16:13:42;28.70;33.80
17659;DHT22;8948;51.534;8.262;2022-08-21T16:18:43;28.70;33.90
17659;DHT22;8948;51.534;8.262;2022-08-21T16:23:44;28.60;34.20
17659;DHT22;8948;51.534;8.262;2022-08-21T16:28:54;28.30;34.50
17659;DHT22;8948;51.534;8.262;2022-08-21T16:33:56;28.10;34.70
17659;DHT22;8948;51.534;8.262;2022-08-21T16:38:58;28.00;34.90
17659;DHT22;8948;51.534;8.262;2022-08-21T16:44:00;28.20;34.70
17659;DHT22;8948;51.534;8.262;2022-08-21T16:49:02;28.00;35.30
17659;DHT22;8948;51.534;8.262;2022-08-21T16:54:03;28.20;35.70
17659;DHT22;8948;51.534;8.262;2022-08-21T16:59:04;28.10;35.30
17659;DHT22;8948;51.534;8.262;2022-08-21T17:04:05;27.90;35.80
17659;DHT22;8948;51.534;8.262;2022-08-21T17:09:06;28.00;36.00
17659;DHT22;8948;51.534;8.262;2022-08-21T17:14:10;27.80;36.20
17659;DHT22;8948;51.534;8.262;2022-08-21T17:19:12;27.80;36.40
17659;DHT22;8948;51.534;8.262;2022-08-21T17:24:12;27.70;36.70
17659;DHT22;8948;51.534;8.262;2022-08-21T17:29:14;27.40;37.00
17659;DHT22;8948;51.534;8.262;2022-08-21T17:34:16;27.10;37.60
17659;DHT22;8948;51.534;8.262;2022-08-21T17:39:16;27.00;37.50
17659;DHT22;8948;51.534;8.262;2022-08-21T17:44:18;26.90;37.90
17659;DHT22;8948;51.534;8.262;2022-08-21T17:49:19;26.80;38.20
17659;DHT22;8948;51.534;8.262;2022-08-21T17:54:20;26.70;38.50
17659;DHT22;8948;51.534;8.262;2022-08-21T17:59:22;26.80;38.50
17659;DHT22;8948;51.534;8.262;2022-08-21T18:04:23;26.80;38.60
17659;DHT22;8948;51.534;8.262;2022-08-21T18:09:23;26.60;38.80
17659;DHT22;8948;51.534;8.262;2022-08-21T18:14:32;26.60;39.30
17659;DHT22;8948;51.534;8.262;2022-08-21T18:19:33;26.70;39.40
17659;DHT22;8948;51.534;8.262;2022-08-21T18:24:34;26.60;39.50
17659;DHT22;8948;51.534;8.262;2022-08-21T18:29:35;26.60;39.90
17659;DHT22;8948;51.534;8.262;2022-08-21T18:34:39;26.40;40.10
17659;DHT22;8948;51.534;8.262;2022-08-21T18:39:40;26.20;40.30
17659;DHT22;8948;51.534;8.262;2022-08-21T18:44:44;26.00;40.50
17659;DHT22;8948;51.534;8.262;2022-08-21T18:49:45;25.80;40.70
17659;DHT22;8948;51.534;8.262;2022-08-21T18:54:45;25.60;40.80
17659;DHT22;8948;51.534;8.262;2022-08-21T18:59:46;25.40;41.50
17659;DHT22;8948;51.534;8.262;2022-08-21T19:04:47;25.20;42.00
17659;DHT22;8948;51.534;8.262;2022-08-21T19:09:48;24.90;42.70
17659;DHT22;8948;51.534;8.262;2022-08-21T19:14:48;24.70;43.30
17659;DHT22;8948;51.534;8.262;2022-08-21T19:19:49;24.50;43.90
17659;DHT22;8948;51.534;8.262;2022-08-21T19:24:50;24.30;44.10
17659;DHT22;8948;51.534;8.262;2022-08-21T19:29:51;24.10;43.90
17659;DHT22;8948;51.534;8.262;2022-08-21T19:34:51;24.00;44.00
17659;DHT22;8948;51.534;8.262;2022-08-21T19:39:52;23.90;43.90
17659;DHT22;8948;51.534;8.262;2022-08-21T19:44:53;23.70;44.50
17659;DHT22;8948;51.534;8.262;2022-08-21T19:49:58;23.60;44.50
17659;DHT22;8948;51.534;8.262;2022-08-21T19:54:59;23.40;45.20
17659;DHT22;8948;51.534;8.262;2022-08-21T20:00:00;23.30;45.60
17659;DHT22;8948;51.534;8.262;2022-08-21T20:05:01;23.20;46.00
17659;DHT22;8948;51.534;8.262;2022-08-21T20:10:03;23.00;46.30
17659;DHT22;8948;51.534;8.262;2022-08-21T20:15:05;22.90;46.10
17659;DHT22;8948;51.534;8.262;2022-08-21T20:20:06;22.80;46.20
17659;DHT22;8948;51.534;8.262;2022-08-21T20:25:07;22.70;46.60
17659;DHT22;8948;51.534;8.262;2022-08-21T20:30:08;22.60;46.80
17659;DHT22;8948;51.534;8.262;2022-08-21T20:35:10;22.50;47.50
17659;DHT22;8948;51.534;8.262;2022-08-21T20:40:12;22.40;47.60
17659;DHT22;8948;51.534;8.262;2022-08-21T20:45:32;22.30;48.00
17659;DHT22;8948;51.534;8.262;2022-08-21T20:50:36;22.20;48.50
17659;DHT22;8948;51.534;8.262;2022-08-21T20:55:44;22.10;48.10
